AirNav   Everest Fuels
 
 452 users online  

7A5 Roanoke Municipal Enloe Airport
Roanoke, Alabama, USA

GOING TO ROANOKE?


FAA INFORMATION EFFECTIVE 22 APRIL 2021

Location

FAA Identifier: 7A5
Lat/Long: 33-07-46.8400N 085-22-19.9750W
33-07.780667N 085-22.332917W
33.1296778,-85.3722153
(estimated)
Elevation: 907 ft. / 276 m (estimated)
Variation: 01W (1985)
From city: 2 miles S of ROANOKE, AL
Time zone: UTC -5 (UTC -6 during Standard Time)
Zip code: 36274

Airport Operations

Airport use: Open to the public
Activation date: 10/1961
Control tower: no
ARTCC: ATLANTA CENTER
FSS: ANNISTON FLIGHT SERVICE STATION
NOTAMs facility: ANB (NOTAM-D service available)
Attendance: UNATNDD
Wind indicator: lighted
Segmented circle: no
Lights: ACTVT MIRL RWY 12/30 - CTAF.
Beacon: white-green (lighted land airport)
Operates sunset to sunrise.

Airport Communications

CTAF: 122.9
ATLANTA APPROACH: 125.5
ATLANTA DEPARTURE: 125.5
WX AWOS-3 at LGC (17 nm SE): 126.325 (706-845-0677)
  • APCH/DEP SVC PRVDD BY ATLANTA LARGE TRACON 125.5 (0515-2200) OTHER TIMES ATLANTA ARTCC 120.45/357.6 (COLUMBUS RCAG).

Nearby radio navigation aids

VOR radial/distance  VOR name  Freq  Var
LGCr299/9.6LAGRANGE VORTAC115.6001E
CSGr329/35.7COLUMBUS VORTAC117.1001E

 
NDB name  Hdg/Dist  Freq  Var  ID
CARROLLTON209/28.827804WGPQ --. .--. --.-
PINE MOUNTAIN307/30.527203WPIM .--. .. --
COWETA COUNTY260/34.023403WEQQ . --.- --.-

Airport Services

Parking: tiedowns
Airframe service: NONE
Powerplant service: NONE
Bottled oxygen: NONE
Bulk oxygen: NONE

Runway Information

Runway 12/30

Dimensions: 3561 x 80 ft. / 1085 x 24 m
Surface: asphalt, in fair condition
Weight bearing capacity: 
Single wheel: 12.0
Runway edge lights: medium intensity
RUNWAY 12  RUNWAY 30
Latitude: 33-07.894667N33-07.666667N
Longitude: 085-22.654500W085-22.011333W
Elevation: 879.0 ft.904.0 ft.
Traffic pattern: leftleft
Displaced threshold: 379 ft.
DSPLCD THR 389 FT FOR NGT OPNS. APCH RATIO 34:1 FOR NGT OPNS.
453 ft.
RELCTD 146 FT FOR NGT OPNS.
Markings: basic, in good conditionbasic, in good condition
Visual slope indicator: 2-box VASI on left
OTS INDEFLY.
2-box VASI on left
OTS INDEFLY.
Obstructions: 32 ft. pole, 837 ft. from runway, 61 ft. right of centerline, 19:1 slope to clear
APCH RATIO 38:1 TO DSPLCD THR.
17 ft. road, 249 ft. from runway, 132 ft. left of centerline, 2:1 slope to clear
APCH RATIO 41:1 TO DSPLCD THR.

Airport Ownership and Management from official FAA records

Ownership: Publicly-owned
Owner: CITY OF ROANOKE
P.O. BOX 1270
ROANOKE, AL 36274
Phone 334-863-4129
Manager: JAMES JOHNSON
P.O. BOX 1270
ROANOKE, AL 36274
Phone 334-338-4240

Airport Operational Statistics

Aircraft based on the field: 11
Single engine airplanes: 10
Multi engine airplanes: 1
    
Aircraft operations: avg 60/week *
71% transient general aviation
29% local general aviation
* for 12-month period ending 15 October 2019

Additional Remarks

FOR ARPT EMERGS CALL (334) 863-2121 (POLICE).
FOR CD CTC ATLANTA APCH AT 678-364-6132, WHEN APCH CLSD CTC ATLANTA ARTCC AT 770-210-7692.

Instrument Procedures

There are no published instrument procedures at 7A5.

Some nearby airports with instrument procedures:

KLGC - LaGrange-Callaway Airport (17 nm SE)
7A3 - Lanett Municipal Airport (20 nm S)
KPIM - Harris County Airport (30 nm SE)
KAUO - Auburn University Regional Airport (31 nm S)
KCTJ - West Georgia Regional Airport-O V Gray Field (32 nm N)
 
Loc | Ops | Rwys | IFR | FBO | Links
Com | Nav | Svcs | Stats | Notes
Area around 7A5 (Roanoke Municipal Enloe Airport)
 
Road maps at: MapQuest Bing Google
 
Aerial photo
WARNING: Photo may not be current or correct
Aerial photo of 7A5 (Roanoke Municipal Enloe Airport)
Photo by Don Neuberg, courtesy of Outwardbound Photography
Photo taken 22-Jun-2011
looking west.

Do you have a better or more recent aerial photo of Roanoke Municipal Enloe Airport that you would like to share? If so, please send us your photo.

 
Sectional chart

 
Airport distance calculator
Flying to Roanoke Municipal Enloe Airport? Find the distance to fly.

From to 7A5

Sunrise and sunset
Times for 12-May-2021
 Local
(UTC-5)
 Zulu
(UTC)
Morning civil twilight05:1810:18
Sunrise05:4510:45
Sunset19:3100:31
Evening civil twilight19:5800:58

Current date and time
Zulu (UTC)  12-May-2021 09:45:33
Local (UTC-5)  12-May-2021 04:45:33
 
METAR
KLGC 
17nm SE 
120935Z AUTO 00000KT 5SM -RA BKN016 BKN037 OVC095 18/18 A3004 RMK AO2 T01800175
KPIM 
30nm SE 
120935Z AUTO 16003KT 7SM -RA OVC002 19/18 A3005 RMK AO2 T01850179
KAUO 
31nm S 
120902Z AUTO 14004KT 3SM -RA BR OVC003 19/19 A3005 RMK AO2 P0000
KCTJ 
32nm N 
120935Z AUTO 35007KT 10SM RA OVC110 14/12 A3011 RMK AO2 T01380121
KCCO 
32nm E 
120935Z AUTO 00000KT 7SM -RA SCT040 BKN055 OVC080 18/15 A3005 RMK AO2 T01790150
KALX 
33nm SW 
120935Z AUTO 36005KT 10SM -RA SCT004 OVC014 18/17 A3005 RMK AO2 P0004 T01770172
TAF
KANB 
36nm NW 
120540Z 1206/1306 00000KT P6SM VCSH BKN070 OVC100 FM120900 05005KT 5SM SHRA BR OVC035 FM121200 05006KT 5SM SHRA BR OVC019 FM121500 03008KT P6SM OVC012 PROB30 1215/1218 4SM -SHRA BR FM130300 07009KT P6SM OVC022 FM130500 06007KT P6SM OVC045
KCSG 
42nm SE 
120632Z 1207/1306 VRB03KT P6SM VCSH SCT004 OVC008 FM120800 03003KT 4SM -SHRA BR SCT004 OVC008 TEMPO 1211/1215 1SM -RADZ BR OVC003 FM121500 02007KT 3SM -RADZ BR OVC008 FM121800 06008KT 6SM BR OVC008 FM122300 07011KT P6SM SCT008 OVC015 FM130400 07011KT P6SM BKN050
KASN 
43nm NW 
120540Z 1206/1306 00000KT P6SM VCSH BKN070 OVC100 FM120900 05005KT 5SM SHRA BR OVC035 FM121200 05006KT 5SM SHRA BR OVC019 FM121500 03008KT P6SM OVC012 PROB30 1215/1218 4SM -SHRA BR FM130300 07009KT P6SM OVC022 FM130500 06007KT P6SM OVC045 AMD NOT SKED
NOTAMs
Click for the latest NOTAMs
NOTAMs are issued by the DoD/FAA and will open in a separate window not controlled by AirNav.

 

 
 

Would you like to see your business listed on this page?

 If your business provides an interesting product or service to pilots, flight crews, aircraft, or users of the Roanoke Municipal Enloe Airport, you should consider listing it here.  To start the listing process, click on the button below
 
Add a business
 

Other Pages about Roanoke Municipal Enloe Airport

Update a link
 
Copyright © AirNav, LLC. All rights reserved. Privacy Policy  Contact